createdAt,value
2023-05-21T00:00:31.962Z,10.52
2023-05-21T00:03:01.608Z,10.46
2023-05-21T00:05:29.797Z,10.42
2023-05-21T00:07:58.069Z,10.36
2023-05-21T00:10:26.700Z,10.30
2023-05-21T00:12:54.836Z,10.26
2023-05-21T00:15:34.629Z,10.24
2023-05-21T00:18:04.587Z,10.20
2023-05-21T00:20:33.481Z,10.19
2023-05-21T00:23:02.896Z,10.16
2023-05-21T00:25:31.598Z,10.13
2023-05-21T00:28:00.123Z,10.09
2023-05-21T00:30:28.525Z,10.07
2023-05-21T00:32:59.158Z,10.03
2023-05-21T00:35:28.796Z,9.98
2023-05-21T00:37:57.468Z,9.94
2023-05-21T00:40:26.329Z,9.92
2023-05-21T00:42:57.243Z,9.93
2023-05-21T00:45:25.781Z,9.91
2023-05-21T00:47:55.862Z,9.90
2023-05-21T00:50:24.740Z,9.86
2023-05-21T00:52:54.659Z,9.85
2023-05-21T00:55:23.066Z,9.86
2023-05-21T00:57:51.902Z,9.83
2023-05-21T01:00:21.703Z,9.81
2023-05-21T01:02:50.142Z,9.77
2023-05-21T01:05:18.409Z,9.74
2023-05-21T01:07:46.792Z,9.72
2023-05-21T01:10:16.959Z,9.71
2023-05-21T01:12:46.109Z,9.71
2023-05-21T01:15:14.881Z,9.72
2023-05-21T01:17:46.183Z,9.76
2023-05-21T01:20:18.236Z,9.81
2023-05-21T01:22:53.705Z,9.85
2023-05-21T01:25:23.029Z,9.91
2023-05-21T01:27:51.379Z,9.95
2023-05-21T01:30:21.862Z,10.04
2023-05-21T01:32:56.011Z,10.10
2023-05-21T01:35:30.015Z,10.15
2023-05-21T01:38:11.406Z,10.19
2023-05-21T01:40:46.854Z,10.23
2023-05-21T01:43:16.089Z,10.24
2023-05-21T01:45:46.433Z,10.22
2023-05-21T01:48:17.483Z,10.19
2023-05-21T01:50:47.450Z,10.13
2023-05-21T01:53:17.458Z,10.07
2023-05-21T01:55:46.163Z,10.02
2023-05-21T01:58:15.754Z,9.95
2023-05-21T02:00:45.593Z,9.90
2023-05-21T02:03:14.973Z,9.83
2023-05-21T02:05:43.201Z,9.76
2023-05-21T02:08:13.010Z,9.69
2023-05-21T02:10:42.880Z,9.60
2023-05-21T02:13:11.477Z,9.57
2023-05-21T02:15:40.304Z,9.55
2023-05-21T02:18:09.717Z,9.51
2023-05-21T02:20:37.848Z,9.48
2023-05-21T02:23:06.216Z,9.41
2023-05-21T02:25:34.870Z,9.38
2023-05-21T02:28:05.113Z,9.34
2023-05-21T02:30:33.364Z,9.34
2023-05-21T02:33:02.985Z,9.33
2023-05-21T02:35:32.341Z,9.33
2023-05-21T02:38:03.268Z,9.32
2023-05-21T02:40:32.927Z,9.35
2023-05-21T02:43:01.170Z,9.39
2023-05-21T02:45:31.458Z,9.46
2023-05-21T02:48:00.825Z,9.52
2023-05-21T02:50:29.403Z,9.60
2023-05-21T02:52:59.734Z,9.67
2023-05-21T02:55:28.149Z,9.70
2023-05-21T02:57:56.638Z,9.75
2023-05-21T03:00:24.765Z,9.81
2023-05-21T03:02:54.662Z,9.88
2023-05-21T03:05:23.377Z,9.96
2023-05-21T03:07:51.501Z,10.05
2023-05-21T03:10:19.727Z,10.12
2023-05-21T03:12:48.613Z,10.20
2023-05-21T03:15:18.304Z,10.27
2023-05-21T03:17:46.545Z,10.35
2023-05-21T03:20:20.921Z,10.44
2023-05-21T03:22:49.972Z,10.53
2023-05-21T03:25:18.379Z,10.61
2023-05-21T03:27:46.834Z,10.73
2023-05-21T03:30:15.297Z,10.82
2023-05-21T03:32:45.369Z,10.92
2023-05-21T03:35:13.530Z,11.02
2023-05-21T03:37:43.110Z,11.06
2023-05-21T03:40:12.018Z,11.13
2023-05-21T03:42:40.554Z,11.18
2023-05-21T03:45:09.597Z,11.20
2023-05-21T03:47:38.165Z,11.29
2023-05-21T03:50:07.503Z,11.36
2023-05-21T03:52:35.730Z,11.48
2023-05-21T03:55:06.141Z,11.66
2023-05-21T03:57:34.224Z,11.74
2023-05-21T04:00:02.781Z,11.85
2023-05-21T04:02:31.025Z,11.98
2023-05-21T04:04:59.654Z,12.12
2023-05-21T04:07:30.129Z,12.27
2023-05-21T04:09:59.429Z,12.39
2023-05-21T04:12:28.996Z,12.46
2023-05-21T04:14:57.130Z,12.56
2023-05-21T04:17:27.098Z,12.65
2023-05-21T04:19:55.615Z,12.73
2023-05-21T04:22:26.882Z,12.76
2023-05-21T04:24:56.004Z,12.80
2023-05-21T04:27:24.967Z,12.84
2023-05-21T04:29:58.116Z,12.95
2023-05-21T04:32:28.674Z,13.04
2023-05-21T04:34:56.869Z,13.12
2023-05-21T04:37:25.726Z,13.19
2023-05-21T04:39:54.793Z,13.26
2023-05-21T04:42:24.073Z,13.33
2023-05-21T04:44:52.301Z,13.38
2023-05-21T04:47:22.305Z,13.40
2023-05-21T04:49:50.901Z,13.45
2023-05-21T04:52:19.063Z,13.52
2023-05-21T04:54:47.957Z,13.53
2023-05-21T04:57:19.798Z,13.60
2023-05-21T04:59:47.939Z,13.71
2023-05-21T05:02:16.333Z,13.84
2023-05-21T05:04:46.567Z,13.95
2023-05-21T05:07:15.129Z,14.11
2023-05-21T05:09:43.286Z,14.26
2023-05-21T05:12:15.381Z,14.35
2023-05-21T05:14:43.464Z,14.38
2023-05-21T05:17:11.544Z,14.46
2023-05-21T05:19:40.263Z,14.47
2023-05-21T05:22:13.317Z,14.57
2023-05-21T05:24:41.903Z,14.69
2023-05-21T05:27:09.994Z,14.71
2023-05-21T05:29:38.250Z,14.76
2023-05-21T05:32:08.006Z,14.90
2023-05-21T05:34:36.155Z,15.00
2023-05-21T05:37:04.634Z,15.04
2023-05-21T05:39:34.963Z,15.11
2023-05-21T05:42:03.375Z,15.20
2023-05-21T05:44:31.750Z,15.34
2023-05-21T05:46:59.871Z,15.52
2023-05-21T05:49:28.252Z,15.73
2023-05-21T05:51:56.826Z,15.89
2023-05-21T05:54:25.054Z,16.02
2023-05-21T05:56:54.606Z,16.13
2023-05-21T05:59:22.790Z,16.20
2023-05-21T06:01:50.940Z,16.34
2023-05-21T06:04:19.086Z,16.43
2023-05-21T06:06:48.384Z,16.50
2023-05-21T06:09:16.914Z,16.55
2023-05-21T06:11:45.123Z,16.57
2023-05-21T06:14:20.702Z,16.66
2023-05-21T06:16:48.801Z,16.76
2023-05-21T06:19:17.126Z,16.83
2023-05-21T06:21:45.707Z,16.89
2023-05-21T06:24:14.636Z,17.10
2023-05-21T06:26:42.719Z,17.31
2023-05-21T06:29:17.421Z,17.45
2023-05-21T06:31:45.543Z,17.64
2023-05-21T06:34:14.199Z,17.82
2023-05-21T06:36:42.464Z,17.89
2023-05-21T06:39:14.094Z,17.90
2023-05-21T06:41:42.571Z,17.95
2023-05-21T06:44:20.862Z,18.07
2023-05-21T06:46:48.950Z,18.17
2023-05-21T06:49:17.155Z,18.24
2023-05-21T06:51:45.309Z,18.30
2023-05-21T06:54:16.723Z,18.39
2023-05-21T06:56:44.878Z,18.40
2023-05-21T06:59:13.308Z,18.39
2023-05-21T07:01:44.075Z,18.49
2023-05-21T07:04:12.805Z,18.52
2023-05-21T07:06:41.257Z,18.63
2023-05-21T07:09:10.536Z,18.75
2023-05-21T07:11:39.007Z,18.84
2023-05-21T07:14:07.570Z,18.93
2023-05-21T07:16:35.725Z,19.03
2023-05-21T07:19:05.703Z,19.12
2023-05-21T07:21:34.023Z,19.23
2023-05-21T07:24:02.228Z,19.31
2023-05-21T07:26:30.314Z,19.38
2023-05-21T07:28:58.476Z,19.39
2023-05-21T07:31:27.194Z,19.43
2023-05-21T07:33:55.672Z,19.48
2023-05-21T07:36:27.598Z,19.58
2023-05-21T07:38:55.993Z,19.65
2023-05-21T07:41:24.200Z,19.59
2023-05-21T07:43:52.684Z,19.63
2023-05-21T07:46:20.928Z,19.68
2023-05-21T07:48:50.068Z,19.80
2023-05-21T07:51:18.727Z,19.90
2023-05-21T07:53:48.305Z,19.95
2023-05-21T07:56:16.542Z,19.92
2023-05-21T07:58:46.023Z,20.02
2023-05-21T08:01:14.409Z,20.10
2023-05-21T08:03:42.940Z,20.10
2023-05-21T08:06:12.150Z,20.11
2023-05-21T08:08:40.268Z,20.10
2023-05-21T08:11:10.346Z,20.12
2023-05-21T08:13:38.517Z,20.19
2023-05-21T08:16:07.409Z,20.27
2023-05-21T08:18:35.537Z,20.45
2023-05-21T08:21:04.569Z,20.53
2023-05-21T08:23:32.655Z,20.48
2023-05-21T08:26:00.889Z,20.53
2023-05-21T08:28:31.354Z,20.57
2023-05-21T08:30:59.928Z,20.51
2023-05-21T08:33:28.971Z,20.60
2023-05-21T08:36:01.723Z,20.68
2023-05-21T08:38:31.322Z,20.83
2023-05-21T08:41:01.556Z,20.76
2023-05-21T08:43:31.272Z,20.67
2023-05-21T08:46:07.533Z,20.56
2023-05-21T08:48:37.905Z,20.56
2023-05-21T08:51:07.366Z,20.72
2023-05-21T08:53:36.049Z,21.02
2023-05-21T08:56:04.839Z,21.34
2023-05-21T08:58:35.660Z,21.61
2023-05-21T09:01:06.255Z,21.64
2023-05-21T09:03:34.837Z,21.88
2023-05-21T09:06:03.404Z,22.06
2023-05-21T09:08:37.107Z,22.06
2023-05-21T09:11:05.878Z,22.06
2023-05-21T09:13:38.972Z,21.91
2023-05-21T09:16:09.308Z,21.83
2023-05-21T09:18:38.318Z,21.72
2023-05-21T09:21:27.784Z,21.66
2023-05-21T09:23:57.788Z,21.59
2023-05-21T09:26:26.740Z,21.51
2023-05-21T09:29:01.162Z,21.40
2023-05-21T09:31:31.030Z,21.29
2023-05-21T09:33:59.433Z,21.26
2023-05-21T09:36:29.572Z,21.32
2023-05-21T09:39:00.395Z,21.36
2023-05-21T09:41:36.301Z,21.42
2023-05-21T09:44:06.375Z,21.57
2023-05-21T09:46:41.990Z,21.75
2023-05-21T09:49:24.922Z,21.94
2023-05-21T09:51:58.169Z,22.15
2023-05-21T09:54:32.973Z,22.24
2023-05-21T09:57:03.104Z,22.35
2023-05-21T09:59:39.819Z,22.53
2023-05-21T10:02:19.149Z,22.54
2023-05-21T10:04:50.142Z,22.55
2023-05-21T10:07:21.879Z,22.74
2023-05-21T10:09:51.284Z,22.61
2023-05-21T10:12:20.951Z,22.89
2023-05-21T10:14:56.507Z,22.97
2023-05-21T10:17:26.699Z,22.98
2023-05-21T10:19:57.724Z,23.00
2023-05-21T10:22:26.787Z,23.04
2023-05-21T10:24:55.672Z,22.90
2023-05-21T10:27:24.395Z,22.91
2023-05-21T10:29:58.306Z,22.80
2023-05-21T10:32:28.377Z,22.65
2023-05-21T10:35:00.782Z,22.56
2023-05-21T10:37:30.708Z,22.39
2023-05-21T10:39:58.930Z,22.29
2023-05-21T10:43:03.860Z,22.58
2023-05-21T10:45:46.527Z,22.66
2023-05-21T10:48:29.665Z,22.78
2023-05-21T10:51:20.390Z,22.94
2023-05-21T10:54:28.744Z,23.10
2023-05-21T10:57:08.095Z,23.12
2023-05-21T10:59:42.665Z,23.03
2023-05-21T11:02:15.059Z,23.04
2023-05-21T11:04:45.771Z,23.10
2023-05-21T11:07:14.226Z,23.24
2023-05-21T11:09:42.303Z,23.34
2023-05-21T11:12:13.091Z,23.48
2023-05-21T11:14:43.638Z,23.64
2023-05-21T11:17:15.247Z,23.74
2023-05-21T11:19:44.580Z,23.80
2023-05-21T11:22:23.604Z,23.74
2023-05-21T11:24:52.002Z,23.78
2023-05-21T11:27:34.708Z,23.83
2023-05-21T11:30:06.191Z,23.97
2023-05-21T11:32:38.894Z,24.11
2023-05-21T11:35:09.137Z,24.11
2023-05-21T11:37:40.776Z,24.08
2023-05-21T11:40:19.941Z,23.93
2023-05-21T11:42:52.093Z,23.76
2023-05-21T11:45:21.110Z,23.75
2023-05-21T11:47:52.430Z,23.93
2023-05-21T11:50:20.973Z,23.94
2023-05-21T11:52:51.122Z,23.92
2023-05-21T11:55:23.684Z,24.09
2023-05-21T11:57:55.263Z,24.12
2023-05-21T12:00:23.823Z,24.25
2023-05-21T12:02:56.975Z,24.46
2023-05-21T12:05:27.287Z,24.57
2023-05-21T12:07:56.781Z,24.55
2023-05-21T12:10:25.085Z,24.46
2023-05-21T12:12:57.081Z,24.34
2023-05-21T12:15:27.795Z,24.39
2023-05-21T12:17:58.159Z,24.66
2023-05-21T12:20:28.755Z,24.69
2023-05-21T12:23:00.861Z,24.96
2023-05-21T12:25:30.172Z,25.10
2023-05-21T12:27:59.024Z,25.16
2023-05-21T12:30:27.701Z,25.23
2023-05-21T12:33:02.591Z,25.18
2023-05-21T12:35:33.032Z,24.94
2023-05-21T12:38:04.124Z,24.73
2023-05-21T12:40:40.617Z,24.50
2023-05-21T12:43:09.917Z,24.39
2023-05-21T12:45:41.257Z,24.39
2023-05-21T12:48:12.178Z,24.67
2023-05-21T12:50:42.270Z,24.89
2023-05-21T12:53:12.646Z,25.08
2023-05-21T12:55:41.346Z,25.18
2023-05-21T12:58:09.638Z,25.13
2023-05-21T13:00:38.381Z,25.17
2023-05-21T13:03:16.762Z,25.32
2023-05-21T13:05:45.752Z,25.42
2023-05-21T13:08:15.878Z,25.61
2023-05-21T13:10:44.172Z,25.67
2023-05-21T13:13:12.538Z,25.80
2023-05-21T13:15:40.724Z,25.88
2023-05-21T13:18:13.505Z,25.79
2023-05-21T13:20:41.660Z,25.70
2023-05-21T13:23:11.915Z,25.65
2023-05-21T13:25:40.220Z,25.49
2023-05-21T13:28:18.088Z,25.61
2023-05-21T13:30:46.616Z,25.81
2023-05-21T13:33:17.603Z,25.85
2023-05-21T13:35:51.160Z,26.02
2023-05-21T13:38:19.294Z,26.09
2023-05-21T13:40:47.427Z,26.19
2023-05-21T13:43:16.709Z,26.26
2023-05-21T13:45:45.156Z,26.38
2023-05-21T13:48:14.441Z,26.37
2023-05-21T13:50:45.168Z,26.48
2023-05-21T13:53:13.493Z,26.55
2023-05-21T13:55:41.589Z,26.60
2023-05-21T13:58:09.899Z,26.69
2023-05-21T14:00:38.276Z,26.74
2023-05-21T14:03:07.825Z,26.63
2023-05-21T14:05:36.459Z,26.55
2023-05-21T14:08:06.825Z,26.52
2023-05-21T14:10:35.201Z,26.37
2023-05-21T14:13:15.407Z,26.23
2023-05-21T14:15:46.906Z,26.33
2023-05-21T14:18:15.826Z,26.37
2023-05-21T14:20:43.940Z,26.41
2023-05-21T14:23:13.496Z,26.51
2023-05-21T14:25:43.089Z,26.48
2023-05-21T14:28:11.737Z,26.48
2023-05-21T14:30:39.963Z,26.48
2023-05-21T14:33:08.605Z,26.43
2023-05-21T14:35:39.702Z,26.51
2023-05-21T14:38:07.832Z,26.58
2023-05-21T14:40:39.868Z,26.71
2023-05-21T14:43:08.467Z,26.74
2023-05-21T14:45:37.251Z,26.65
2023-05-21T14:48:08.784Z,26.73
2023-05-21T14:50:37.519Z,26.83
2023-05-21T14:53:06.682Z,26.75
2023-05-21T14:55:36.858Z,26.61
2023-05-21T14:58:09.108Z,26.65
2023-05-21T15:00:38.422Z,26.58
2023-05-21T15:03:07.744Z,26.65
2023-05-21T15:05:36.395Z,26.60
2023-05-21T15:08:06.180Z,26.53
2023-05-21T15:10:34.362Z,26.60
2023-05-21T15:13:03.343Z,26.70
2023-05-21T15:15:33.255Z,26.83
2023-05-21T15:18:05.296Z,26.96
2023-05-21T15:20:33.588Z,27.00
2023-05-21T15:25:34.560Z,26.76
2023-05-21T15:28:02.714Z,26.81
2023-05-21T15:30:32.772Z,26.91
2023-05-21T15:33:01.450Z,27.71
2023-05-21T15:35:31.312Z,29.05
2023-05-21T15:37:59.586Z,30.03
2023-05-21T15:40:28.132Z,31.02
2023-05-21T15:42:56.325Z,31.56
2023-05-21T15:45:26.104Z,30.89
2023-05-21T15:47:55.729Z,31.17
2023-05-21T15:50:24.721Z,31.06
2023-05-21T15:52:55.336Z,30.49
2023-05-21T15:55:23.614Z,29.88
2023-05-21T15:57:51.700Z,29.36
2023-05-21T16:00:19.825Z,28.84
2023-05-21T16:02:48.127Z,28.27
2023-05-21T16:05:17.784Z,27.69
2023-05-21T16:07:46.297Z,27.14
2023-05-21T16:10:14.431Z,26.78
2023-05-21T16:12:42.676Z,26.59
2023-05-21T16:15:11.194Z,26.70
2023-05-21T16:17:39.426Z,26.67
2023-05-21T16:20:08.989Z,26.49
2023-05-21T16:22:38.990Z,26.49
2023-05-21T16:25:08.637Z,26.66
2023-05-21T16:27:37.460Z,26.74
2023-05-21T16:30:07.560Z,27.44
2023-05-21T16:32:35.808Z,27.75
2023-05-21T16:35:06.332Z,28.10
2023-05-21T16:37:35.837Z,28.58
2023-05-21T16:40:06.676Z,29.18
2023-05-21T16:42:34.745Z,29.76
2023-05-21T16:45:02.944Z,30.07
2023-05-21T16:47:31.922Z,30.33
2023-05-21T16:50:00.908Z,30.60
2023-05-21T16:52:29.374Z,30.98
2023-05-21T16:54:57.455Z,31.31
2023-05-21T16:57:27.044Z,31.16
2023-05-21T16:59:55.976Z,31.04
2023-05-21T17:02:24.982Z,30.58
2023-05-21T17:04:55.248Z,30.89
2023-05-21T17:07:23.452Z,31.16
2023-05-21T17:09:51.628Z,31.33
2023-05-21T17:12:19.741Z,31.61
2023-05-21T17:14:52.456Z,31.87
2023-05-21T17:17:20.542Z,31.98
2023-05-21T17:19:48.619Z,31.91
2023-05-21T17:22:16.775Z,31.66
2023-05-21T17:24:44.831Z,31.43
2023-05-21T17:27:13.350Z,31.32
2023-05-21T17:29:42.733Z,31.20
2023-05-21T17:32:13.396Z,31.11
2023-05-21T17:34:43.086Z,31.01
2023-05-21T17:37:11.254Z,30.71
2023-05-21T17:39:39.597Z,30.56
2023-05-21T17:42:07.781Z,30.39
2023-05-21T17:44:39.079Z,30.26
2023-05-21T17:47:08.893Z,30.06
2023-05-21T17:49:41.747Z,29.94
2023-05-21T17:52:09.898Z,29.86
2023-05-21T17:54:38.208Z,29.70
2023-05-21T17:57:06.747Z,29.60
2023-05-21T17:59:35.009Z,29.54
2023-05-21T18:02:03.100Z,29.40
2023-05-21T18:04:31.786Z,29.33
2023-05-21T18:07:01.937Z,29.25
2023-05-21T18:09:30.059Z,29.14
2023-05-21T18:11:58.412Z,28.99
2023-05-21T18:14:28.037Z,28.69
2023-05-21T18:16:56.583Z,28.40
2023-05-21T18:19:24.765Z,28.19
2023-05-21T18:21:54.079Z,28.10
2023-05-21T18:24:24.143Z,27.99
2023-05-21T18:26:52.255Z,27.84
2023-05-21T18:29:20.459Z,27.52
2023-05-21T18:31:48.621Z,27.19
2023-05-21T18:34:17.538Z,26.68
2023-05-21T18:36:45.855Z,26.07
2023-05-21T18:39:13.934Z,25.54
2023-05-21T18:41:43.552Z,24.96
2023-05-21T18:44:12.075Z,24.45
2023-05-21T18:46:40.302Z,24.04
2023-05-21T18:49:08.459Z,23.75
2023-05-21T18:51:36.949Z,23.42
2023-05-21T18:54:05.647Z,23.17
2023-05-21T18:56:33.790Z,22.90
2023-05-21T18:59:03.544Z,22.71
2023-05-21T19:01:31.818Z,22.51
2023-05-21T19:04:00.017Z,22.32
2023-05-21T19:06:28.324Z,22.13
2023-05-21T19:08:56.960Z,21.90
2023-05-21T19:11:27.619Z,21.74
2023-05-21T19:13:55.897Z,21.53
2023-05-21T19:16:25.953Z,21.36
2023-05-21T19:18:54.536Z,21.22
2023-05-21T19:21:22.909Z,21.04
2023-05-21T19:23:53.715Z,20.89
2023-05-21T19:26:23.036Z,20.74
2023-05-21T19:28:53.845Z,20.55
2023-05-21T19:31:22.826Z,20.38
2023-05-21T19:33:52.881Z,20.25
2023-05-21T19:36:22.297Z,20.11
2023-05-21T19:38:52.217Z,20.01
2023-05-21T19:41:21.697Z,19.92
2023-05-21T19:43:49.846Z,19.80
2023-05-21T19:46:20.444Z,19.67
2023-05-21T19:48:48.939Z,19.58
2023-05-21T19:51:19.004Z,19.46
2023-05-21T19:53:47.165Z,19.37
2023-05-21T19:56:16.073Z,19.27
2023-05-21T19:58:47.216Z,19.16
2023-05-21T20:01:17.572Z,19.05
2023-05-21T20:03:46.545Z,18.95
2023-05-21T20:06:19.293Z,18.89
2023-05-21T20:08:49.222Z,18.81
2023-05-21T20:11:23.508Z,18.74
2023-05-21T20:13:53.177Z,18.68
2023-05-21T20:16:21.617Z,18.60
2023-05-21T20:18:50.404Z,18.52
2023-05-21T20:21:24.199Z,18.46
2023-05-21T20:23:54.758Z,18.41
2023-05-21T20:26:23.258Z,18.34
2023-05-21T20:28:51.342Z,18.27
2023-05-21T20:31:20.347Z,18.22
2023-05-21T20:33:50.763Z,18.21
2023-05-21T20:36:21.373Z,18.18
2023-05-21T20:38:49.609Z,18.17
2023-05-21T20:41:20.136Z,18.14
2023-05-21T20:43:48.382Z,18.13
2023-05-21T20:46:18.522Z,18.14
2023-05-21T20:48:47.432Z,18.10
2023-05-21T20:51:16.213Z,18.09
2023-05-21T20:53:44.520Z,18.06
2023-05-21T20:56:21.766Z,18.03
2023-05-21T20:58:56.546Z,17.99
2023-05-21T21:01:25.312Z,17.96
2023-05-21T21:03:53.872Z,17.92
2023-05-21T21:06:22.659Z,17.89
2023-05-21T21:08:50.741Z,17.82
2023-05-21T21:11:19.448Z,17.75
2023-05-21T21:13:48.001Z,17.70
2023-05-21T21:16:18.223Z,17.62
2023-05-21T21:18:47.298Z,17.55
2023-05-21T21:21:16.215Z,17.50
2023-05-21T21:23:44.347Z,17.42
2023-05-21T21:26:12.527Z,17.35
2023-05-21T21:28:40.751Z,17.28
2023-05-21T21:31:09.607Z,17.18
2023-05-21T21:33:39.583Z,17.12
2023-05-21T21:36:12.206Z,17.08
2023-05-21T21:38:40.319Z,17.01
2023-05-21T21:41:09.601Z,16.93
2023-05-21T21:43:38.096Z,16.87
2023-05-21T21:46:26.935Z,16.78
2023-05-21T21:48:56.494Z,16.70
2023-05-21T21:51:24.700Z,16.65
2023-05-21T21:53:52.884Z,16.57
2023-05-21T21:56:22.254Z,16.48
2023-05-21T21:58:50.349Z,16.42
2023-05-21T22:01:19.431Z,16.33
2023-05-21T22:03:48.844Z,16.26
2023-05-21T22:06:19.271Z,16.17
2023-05-21T22:08:47.383Z,16.12
2023-05-21T22:11:17.097Z,16.09
2023-05-21T22:13:45.493Z,16.05
2023-05-21T22:16:13.676Z,16.02
2023-05-21T22:18:42.104Z,16.00
2023-05-21T22:21:14.441Z,15.97
2023-05-21T22:23:45.382Z,15.94
2023-05-21T22:26:14.001Z,15.90
2023-05-21T22:28:42.541Z,15.84
2023-05-21T22:31:11.664Z,15.79
2023-05-21T22:33:40.894Z,15.68
2023-05-21T22:36:11.521Z,15.67
2023-05-21T22:38:39.739Z,15.61
2023-05-21T22:41:10.884Z,15.59
2023-05-21T22:43:39.043Z,15.54
2023-05-21T22:46:07.715Z,15.53
2023-05-21T22:48:37.424Z,15.47
2023-05-21T22:51:06.189Z,15.42
2023-05-21T22:53:35.699Z,15.39
2023-05-21T22:56:04.240Z,15.34
2023-05-21T22:58:34.114Z,15.31
2023-05-21T23:01:02.973Z,15.27
2023-05-21T23:03:31.699Z,15.23
2023-05-21T23:05:59.806Z,15.20
2023-05-21T23:08:28.342Z,15.12
2023-05-21T23:10:56.737Z,15.08
2023-05-21T23:13:25.245Z,15.02
2023-05-21T23:15:58.849Z,14.97
2023-05-21T23:18:27.097Z,14.89
2023-05-21T23:20:56.538Z,14.84
2023-05-21T23:23:24.807Z,14.78
2023-05-21T23:25:57.453Z,14.72
2023-05-21T23:28:25.846Z,14.68
2023-05-21T23:30:55.489Z,14.63
2023-05-21T23:33:23.914Z,14.56
2023-05-21T23:35:53.460Z,14.51
2023-05-21T23:38:22.021Z,14.48
2023-05-21T23:40:51.168Z,14.42
2023-05-21T23:43:19.322Z,14.38
2023-05-21T23:45:47.496Z,14.35
2023-05-21T23:48:17.100Z,14.28
2023-05-21T23:50:45.745Z,14.24
2023-05-21T23:53:14.294Z,14.21
2023-05-21T23:55:42.802Z,14.21
2023-05-21T23:58:10.991Z,14.20
